createdAt,value
2018-03-26T00:00:22.231Z,114.00
2018-03-26T00:01:22.202Z,120.90
2018-03-26T00:02:22.173Z,121.70
2018-03-26T00:03:22.145Z,121.10
2018-03-26T00:04:22.117Z,117.90
2018-03-26T00:05:22.090Z,121.30
2018-03-26T00:06:22.060Z,124.50
2018-03-26T00:07:22.031Z,119.50
2018-03-26T00:08:22.004Z,119.90
2018-03-26T00:09:21.973Z,123.50
2018-03-26T00:10:21.947Z,124.10
2018-03-26T00:11:21.919Z,118.50
2018-03-26T00:12:21.888Z,123.30
2018-03-26T00:13:21.858Z,126.40
2018-03-26T00:14:21.832Z,126.40
2018-03-26T00:15:21.802Z,123.00
2018-03-26T00:16:21.772Z,118.30
2018-03-26T00:17:21.744Z,122.00
2018-03-26T00:18:21.716Z,122.40
2018-03-26T00:19:21.693Z,120.40
2018-03-26T00:20:21.659Z,126.10
2018-03-26T00:21:21.630Z,126.00
2018-03-26T00:22:21.601Z,120.80
2018-03-26T00:23:21.572Z,122.70
2018-03-26T00:24:21.544Z,125.20
2018-03-26T00:25:21.517Z,127.00
2018-03-26T00:26:21.488Z,119.00
2018-03-26T00:27:21.458Z,121.30
2018-03-26T00:28:21.429Z,123.80
2018-03-26T00:29:21.400Z,134.60
2018-03-26T00:30:21.373Z,129.50
2018-03-26T00:31:21.342Z,118.90
2018-03-26T00:32:21.315Z,121.90
2018-03-26T00:33:21.285Z,121.90
2018-03-26T00:34:21.256Z,124.60
2018-03-26T00:35:21.227Z,123.00
2018-03-26T00:36:21.199Z,123.80
2018-03-26T00:37:21.169Z,126.10
2018-03-26T00:38:21.141Z,124.10
2018-03-26T00:39:21.113Z,129.30
2018-03-26T00:40:21.084Z,124.10
2018-03-26T00:41:21.058Z,125.50
2018-03-26T00:42:21.028Z,138.50
2018-03-26T00:43:20.998Z,131.90
2018-03-26T00:44:20.968Z,130.00
2018-03-26T00:45:20.939Z,132.70
2018-03-26T00:46:20.911Z,130.00
2018-03-26T00:47:20.881Z,127.60
2018-03-26T00:48:20.854Z,127.70
2018-03-26T00:49:20.824Z,139.20
2018-03-26T00:50:20.799Z,130.30
2018-03-26T00:51:20.766Z,131.90
2018-03-26T00:52:20.746Z,136.80
2018-03-26T00:53:20.711Z,136.30
2018-03-26T00:54:20.681Z,134.20
2018-03-26T00:55:20.651Z,131.00
2018-03-26T00:56:20.623Z,141.00
2018-03-26T00:57:20.593Z,146.10
2018-03-26T00:58:20.564Z,146.60
2018-03-26T00:59:20.538Z,145.80
2018-03-26T01:00:20.520Z,145.50
2018-03-26T01:01:20.478Z,145.90
2018-03-26T01:02:20.449Z,156.50
2018-03-26T01:03:20.423Z,153.30
2018-03-26T01:04:20.396Z,153.80
2018-03-26T01:05:20.363Z,159.60
2018-03-26T01:06:20.336Z,169.60
2018-03-26T01:07:20.313Z,174.40
2018-03-26T01:08:20.278Z,172.30
2018-03-26T01:09:20.249Z,176.80
2018-03-26T01:10:20.219Z,171.70
2018-03-26T01:11:20.191Z,176.60
2018-03-26T01:12:20.162Z,173.40
2018-03-26T01:13:20.141Z,173.30
2018-03-26T01:14:20.104Z,171.00
2018-03-26T01:15:20.075Z,174.20
2018-03-26T01:16:20.047Z,177.00
2018-03-26T01:17:20.017Z,176.70
2018-03-26T01:18:19.991Z,171.70
2018-03-26T01:19:19.960Z,179.10
2018-03-26T01:20:19.932Z,175.20
2018-03-26T01:21:19.901Z,173.60
2018-03-26T01:22:19.873Z,175.30
2018-03-26T01:23:19.846Z,169.00
2018-03-26T01:24:19.815Z,172.50
2018-03-26T01:25:19.787Z,171.50
2018-03-26T01:26:19.757Z,176.90
2018-03-26T01:27:19.728Z,181.20
2018-03-26T01:28:19.699Z,171.20
2018-03-26T01:29:19.671Z,178.50
2018-03-26T01:30:19.651Z,175.70
2018-03-26T01:31:19.617Z,177.30
2018-03-26T01:32:19.585Z,178.80
2018-03-26T01:33:19.554Z,173.80
2018-03-26T01:34:19.527Z,179.40
2018-03-26T01:35:19.499Z,185.30
2018-03-26T01:36:19.488Z,183.80
2018-03-26T01:37:19.439Z,184.70
2018-03-26T01:38:19.412Z,185.50
2018-03-26T01:39:19.381Z,195.70
2018-03-26T01:40:19.355Z,182.60
2018-03-26T01:41:19.328Z,177.40
2018-03-26T01:42:19.295Z,197.40
2018-03-26T01:43:19.267Z,186.50
2018-03-26T01:44:19.238Z,194.70
2018-03-26T01:45:19.211Z,207.30
2018-03-26T01:46:19.181Z,200.10
2018-03-26T01:47:19.152Z,192.30
2018-03-26T01:48:19.122Z,210.00
2018-03-26T01:49:19.094Z,218.20
2018-03-26T01:50:19.064Z,210.80
2018-03-26T01:51:19.035Z,214.50
2018-03-26T01:52:19.006Z,223.10
2018-03-26T01:53:18.982Z,231.20
2018-03-26T01:54:18.947Z,226.50
2018-03-26T01:55:18.918Z,232.20
2018-03-26T01:56:18.890Z,231.00
2018-03-26T01:57:18.860Z,249.70
2018-03-26T01:58:18.831Z,236.40
2018-03-26T01:59:18.803Z,236.10
2018-03-26T02:00:18.776Z,235.70
2018-03-26T02:01:18.748Z,244.30
2018-03-26T02:02:18.715Z,254.30
2018-03-26T02:03:18.691Z,242.20
2018-03-26T02:04:18.657Z,234.50
2018-03-26T02:05:18.630Z,244.00
2018-03-26T02:06:18.598Z,236.70
2018-03-26T02:07:18.569Z,241.30
2018-03-26T02:08:18.541Z,237.10
2018-03-26T02:09:18.513Z,234.80
2018-03-26T02:10:18.481Z,238.40
2018-03-26T02:11:18.453Z,224.00
2018-03-26T02:12:18.424Z,234.10
2018-03-26T02:13:18.394Z,237.70
2018-03-26T02:14:18.365Z,226.70
2018-03-26T02:15:18.337Z,209.70
2018-03-26T02:16:18.310Z,204.50
2018-03-26T02:17:18.278Z,210.90
2018-03-26T02:18:18.249Z,191.90
2018-03-26T02:19:18.220Z,197.20
2018-03-26T02:20:18.200Z,191.10
2018-03-26T02:21:18.161Z,189.30
2018-03-26T02:22:18.132Z,195.40
2018-03-26T02:23:18.104Z,183.40
2018-03-26T02:24:18.076Z,182.30
2018-03-26T02:25:18.046Z,174.30
2018-03-26T02:26:18.016Z,182.90
2018-03-26T02:27:17.992Z,184.30
2018-03-26T02:28:17.963Z,183.90
2018-03-26T02:29:17.928Z,171.30
2018-03-26T02:30:17.906Z,172.70
2018-03-26T02:31:17.875Z,172.60
2018-03-26T02:32:17.843Z,177.80
2018-03-26T02:33:17.811Z,180.20
2018-03-26T02:34:17.782Z,174.50
2018-03-26T02:35:17.757Z,175.30
2018-03-26T02:36:17.724Z,178.70
2018-03-26T02:37:17.695Z,178.90
2018-03-26T02:38:17.674Z,177.60
2018-03-26T02:39:17.840Z,170.20
2018-03-26T02:40:17.812Z,170.50
2018-03-26T02:41:17.577Z,167.60
2018-03-26T02:42:17.549Z,171.20
2018-03-26T02:43:17.723Z,159.20
2018-03-26T02:44:17.694Z,154.60
2018-03-26T02:45:17.459Z,166.70
2018-03-26T02:46:17.431Z,152.00
2018-03-26T02:47:17.403Z,152.00
2018-03-26T02:48:17.372Z,150.40
2018-03-26T02:49:17.545Z,154.80
2018-03-26T02:50:17.313Z,153.90
2018-03-26T02:51:17.293Z,152.90
2018-03-26T02:52:17.254Z,144.10
2018-03-26T02:53:17.226Z,139.10
2018-03-26T02:54:17.195Z,140.10
2018-03-26T02:55:17.186Z,146.60
2018-03-26T02:56:17.137Z,151.00
2018-03-26T02:57:17.113Z,148.70
2018-03-26T02:58:17.077Z,152.20
2018-03-26T02:59:17.056Z,145.70
2018-03-26T03:00:17.021Z,158.30
2018-03-26T03:01:16.991Z,158.20
2018-03-26T03:02:16.961Z,158.50
2018-03-26T03:03:16.931Z,162.50
2018-03-26T03:04:16.901Z,149.80
2018-03-26T03:05:16.885Z,158.40
2018-03-26T03:06:16.844Z,158.70
2018-03-26T03:07:16.813Z,159.20
2018-03-26T03:08:16.782Z,165.10
2018-03-26T03:09:16.751Z,159.80
2018-03-26T03:10:16.723Z,168.00
2018-03-26T03:11:16.701Z,158.70
2018-03-26T03:12:16.668Z,157.40
2018-03-26T03:13:16.633Z,170.80
2018-03-26T03:14:16.604Z,166.90
2018-03-26T03:15:16.579Z,157.90
2018-03-26T03:16:16.546Z,157.30
2018-03-26T03:17:16.519Z,157.50
2018-03-26T03:18:16.497Z,159.20
2018-03-26T03:19:16.456Z,157.40
2018-03-26T03:20:16.427Z,150.30
2018-03-26T03:21:16.396Z,165.50
2018-03-26T03:22:16.375Z,156.40
2018-03-26T03:23:16.342Z,148.20
2018-03-26T03:24:16.308Z,155.00
2018-03-26T03:25:16.279Z,143.20
2018-03-26T03:26:16.249Z,145.50
2018-03-26T03:27:16.220Z,138.00
2018-03-26T03:28:16.191Z,139.90
2018-03-26T03:29:16.162Z,143.00
2018-03-26T03:30:16.133Z,129.00
2018-03-26T03:31:16.112Z,136.00
2018-03-26T03:32:16.072Z,136.40
2018-03-26T03:33:16.048Z,135.60
2018-03-26T03:34:16.013Z,124.40
2018-03-26T03:35:15.984Z,121.70
2018-03-26T03:36:15.954Z,112.50
2018-03-26T03:37:15.924Z,108.10
2018-03-26T03:38:15.896Z,106.20
2018-03-26T03:39:15.866Z,104.80
2018-03-26T03:40:15.836Z,98.80
2018-03-26T03:41:15.808Z,99.50
2018-03-26T03:42:15.777Z,95.00
2018-03-26T03:43:15.747Z,90.20
2018-03-26T03:44:15.720Z,97.70
2018-03-26T03:45:15.690Z,92.80
2018-03-26T03:46:15.664Z,91.90
2018-03-26T03:47:15.636Z,95.50
2018-03-26T03:48:15.599Z,100.50
2018-03-26T03:49:15.569Z,98.00
2018-03-26T03:50:15.546Z,101.70
2018-03-26T03:51:15.510Z,99.00
2018-03-26T03:52:15.483Z,105.90
2018-03-26T03:53:15.452Z,94.30
2018-03-26T03:54:15.421Z,99.10
2018-03-26T03:55:15.391Z,95.00
2018-03-26T03:56:15.362Z,93.00
2018-03-26T03:57:15.338Z,96.80
2018-03-26T03:58:15.304Z,97.00
2018-03-26T03:59:15.273Z,100.30
2018-03-26T04:00:15.243Z,97.10
2018-03-26T04:01:15.213Z,94.80
2018-03-26T04:02:15.182Z,98.90
2018-03-26T04:03:15.154Z,87.20
2018-03-26T04:04:15.124Z,82.50
2018-03-26T04:05:15.095Z,86.40
2018-03-26T04:06:15.066Z,88.70
2018-03-26T04:07:15.034Z,90.90
2018-03-26T04:08:15.004Z,95.30
2018-03-26T04:09:14.974Z,81.60
2018-03-26T04:10:14.949Z,78.90
2018-03-26T04:11:14.922Z,89.10
2018-03-26T04:12:14.889Z,90.90
2018-03-26T04:13:14.854Z,89.40
2018-03-26T04:14:14.824Z,91.70
2018-03-26T04:15:14.794Z,90.50
2018-03-26T04:16:14.765Z,87.80
2018-03-26T04:17:14.733Z,87.00
2018-03-26T04:18:14.705Z,84.60
2018-03-26T04:19:14.673Z,85.30
2018-03-26T04:20:14.644Z,83.80
2018-03-26T04:21:14.612Z,75.50
2018-03-26T04:22:14.716Z,86.40
2018-03-26T04:23:14.553Z,77.70
2018-03-26T04:24:14.523Z,85.40
2018-03-26T04:25:14.495Z,90.60
2018-03-26T04:26:14.462Z,95.90
2018-03-26T04:27:14.432Z,89.20
2018-03-26T04:28:14.403Z,97.00
2018-03-26T04:29:14.370Z,87.60
2018-03-26T04:30:14.342Z,90.10
2018-03-26T04:31:14.310Z,90.20
2018-03-26T04:32:14.279Z,82.40
2018-03-26T04:33:14.251Z,87.20
2018-03-26T04:34:14.218Z,91.60
2018-03-26T04:35:14.189Z,88.10
2018-03-26T04:36:14.158Z,79.60
2018-03-26T04:37:14.128Z,77.30
2018-03-26T04:38:14.097Z,79.30
2018-03-26T04:39:14.069Z,78.10
2018-03-26T04:40:14.036Z,77.90
2018-03-26T04:41:14.005Z,84.90
2018-03-26T04:42:13.976Z,80.50
2018-03-26T04:43:14.147Z,76.30
2018-03-26T04:44:13.916Z,82.60
2018-03-26T04:45:13.883Z,75.00
2018-03-26T04:46:13.853Z,90.30
2018-03-26T04:47:13.825Z,89.70
2018-03-26T04:48:13.793Z,88.20
2018-03-26T04:49:13.761Z,84.80
2018-03-26T04:50:13.749Z,81.40
2018-03-26T04:51:13.700Z,85.90
2018-03-26T04:52:13.671Z,91.60
2018-03-26T04:53:13.638Z,102.10
2018-03-26T04:54:13.638Z,97.70
2018-03-26T04:55:13.577Z,96.10
2018-03-26T04:56:13.547Z,97.80
2018-03-26T04:57:13.516Z,101.20
2018-03-26T04:58:13.485Z,95.80
2018-03-26T04:59:13.455Z,81.40
2018-03-26T05:00:13.425Z,84.20
2018-03-26T05:01:13.393Z,75.40
2018-03-26T05:02:13.378Z,73.10
2018-03-26T05:03:13.333Z,67.70
2018-03-26T05:04:13.303Z,67.00
2018-03-26T05:05:13.271Z,56.20
2018-03-26T05:06:13.242Z,67.80
2018-03-26T05:07:13.220Z,64.10
2018-03-26T05:08:13.184Z,67.60
2018-03-26T05:09:13.149Z,74.70
2018-03-26T05:10:13.119Z,70.90
2018-03-26T05:11:13.088Z,71.40
2018-03-26T05:12:13.064Z,75.60
2018-03-26T05:13:13.027Z,77.00
2018-03-26T05:14:12.997Z,77.70
2018-03-26T05:15:12.968Z,91.40
2018-03-26T05:16:12.938Z,85.30
2018-03-26T05:17:12.904Z,80.60
2018-03-26T05:18:12.874Z,67.20
2018-03-26T05:19:12.844Z,68.60
2018-03-26T05:20:12.813Z,63.10
2018-03-26T05:21:12.782Z,64.30
2018-03-26T05:22:12.751Z,64.50
2018-03-26T05:23:12.726Z,65.90
2018-03-26T05:24:12.690Z,61.20
2018-03-26T05:25:13.510Z,55.20
2018-03-26T05:26:12.630Z,56.00
2018-03-26T05:27:12.605Z,57.90
2018-03-26T05:28:12.568Z,54.90
2018-03-26T05:29:12.536Z,58.10
2018-03-26T05:30:12.506Z,49.90
2018-03-26T05:31:12.503Z,52.40
2018-03-26T05:32:12.445Z,46.20
2018-03-26T05:33:12.413Z,49.10
2018-03-26T05:34:12.383Z,47.00
2018-03-26T05:35:12.351Z,51.50
2018-03-26T05:36:12.322Z,40.50
2018-03-26T05:37:12.290Z,43.50
2018-03-26T05:38:12.267Z,47.20
2018-03-26T05:39:12.228Z,42.00
2018-03-26T05:40:12.201Z,45.90
2018-03-26T05:41:12.169Z,44.00
2018-03-26T05:42:12.136Z,44.10
2018-03-26T05:43:12.305Z,46.70
2018-03-26T05:44:12.076Z,47.00
2018-03-26T05:45:12.043Z,42.40
2018-03-26T05:46:12.014Z,44.50
2018-03-26T05:47:11.982Z,42.70
2018-03-26T05:48:11.951Z,40.10
2018-03-26T05:49:11.936Z,41.70
2018-03-26T05:50:11.889Z,38.80
2018-03-26T05:51:11.858Z,40.10
2018-03-26T05:52:11.895Z,40.00
2018-03-26T05:53:11.796Z,42.70
2018-03-26T05:54:11.768Z,41.60
2018-03-26T05:55:11.738Z,32.50
2018-03-26T05:56:11.713Z,37.60
2018-03-26T05:57:11.672Z,35.50
2018-03-26T05:58:11.643Z,33.60
2018-03-26T05:59:11.610Z,40.90
2018-03-26T06:00:11.581Z,33.70
2018-03-26T06:01:11.548Z,42.70
2018-03-26T06:02:11.538Z,34.50
2018-03-26T06:03:11.487Z,36.00
2018-03-26T06:04:11.457Z,39.40
2018-03-26T06:05:11.425Z,36.10
2018-03-26T06:06:11.398Z,32.30
2018-03-26T06:07:11.363Z,33.70
2018-03-26T06:08:11.336Z,36.30
2018-03-26T06:09:11.302Z,39.60
2018-03-26T06:10:11.270Z,39.20
2018-03-26T06:11:11.240Z,37.50
2018-03-26T06:12:11.213Z,33.00
2018-03-26T06:13:11.178Z,40.90
2018-03-26T06:14:11.149Z,34.80
2018-03-26T06:15:11.119Z,34.40
2018-03-26T06:16:11.087Z,44.00
2018-03-26T06:17:11.062Z,40.90
2018-03-26T06:18:11.023Z,35.80
2018-03-26T06:19:10.993Z,29.60
2018-03-26T06:20:10.961Z,32.30
2018-03-26T06:21:10.929Z,30.80
2018-03-26T06:22:10.898Z,33.90
2018-03-26T06:23:10.868Z,34.30
2018-03-26T06:24:10.837Z,44.50
2018-03-26T06:25:10.806Z,52.50
2018-03-26T06:26:10.774Z,84.20
2018-03-26T06:27:10.745Z,47.00
2018-03-26T06:28:10.713Z,43.00
2018-03-26T06:29:10.680Z,47.00
2018-03-26T06:30:10.650Z,43.90
2018-03-26T06:31:10.620Z,73.00
2018-03-26T06:32:10.588Z,43.60
2018-03-26T06:33:10.556Z,50.90
2018-03-26T06:34:10.525Z,51.50
2018-03-26T06:35:10.495Z,43.40
2018-03-26T06:36:10.464Z,30.00
2018-03-26T06:37:10.437Z,40.20
2018-03-26T06:38:10.401Z,42.00
2018-03-26T06:39:10.370Z,36.10
2018-03-26T06:40:10.355Z,31.20
2018-03-26T06:41:10.308Z,49.40
2018-03-26T06:42:10.277Z,33.30
2018-03-26T06:43:10.246Z,39.00
2018-03-26T06:44:10.245Z,34.50
2018-03-26T06:45:10.185Z,42.90
2018-03-26T06:46:10.153Z,29.40
2018-03-26T06:47:10.122Z,29.00
2018-03-26T06:48:10.093Z,30.30
2018-03-26T06:49:10.060Z,39.40
2018-03-26T06:50:10.029Z,44.60
2018-03-26T06:51:09.998Z,53.70
2018-03-26T06:52:09.968Z,37.50
2018-03-26T06:53:09.936Z,24.60
2018-03-26T06:54:09.905Z,31.30
2018-03-26T06:55:09.878Z,27.00
2018-03-26T06:56:09.844Z,26.30
2018-03-26T06:57:09.813Z,28.30
2018-03-26T06:58:09.785Z,30.90
2018-03-26T06:59:09.751Z,35.20
2018-03-26T07:00:09.727Z,29.60
2018-03-26T07:01:09.694Z,27.20
2018-03-26T07:02:09.658Z,27.30
2018-03-26T07:03:09.628Z,25.10
2018-03-26T07:04:09.601Z,23.90
2018-03-26T07:05:09.566Z,21.00
2018-03-26T07:06:09.536Z,21.60
2018-03-26T07:07:09.505Z,19.50
2018-03-26T07:08:09.474Z,19.10
2018-03-26T07:09:09.445Z,17.70
2018-03-26T07:10:09.411Z,17.90
2018-03-26T07:11:09.382Z,15.80
2018-03-26T07:12:09.352Z,16.10
2018-03-26T07:13:09.321Z,18.30
2018-03-26T07:14:09.306Z,18.00
2018-03-26T07:15:09.258Z,13.00
2018-03-26T07:16:09.231Z,15.80
2018-03-26T07:17:09.196Z,13.30
2018-03-26T07:18:09.167Z,15.30
2018-03-26T07:19:09.135Z,18.60
2018-03-26T07:20:09.106Z,14.50
2018-03-26T07:21:09.073Z,16.50
2018-03-26T07:22:09.043Z,17.00
2018-03-26T07:23:09.018Z,21.70
2018-03-26T07:24:08.983Z,23.70
2018-03-26T07:25:08.953Z,20.70
2018-03-26T07:26:08.920Z,17.30
2018-03-26T07:27:08.890Z,16.40
2018-03-26T07:28:08.859Z,25.30
2018-03-26T07:29:08.829Z,21.50
2018-03-26T07:30:08.797Z,21.50
2018-03-26T07:31:08.766Z,19.50
2018-03-26T07:32:08.737Z,20.00
2018-03-26T07:33:08.706Z,16.70
2018-03-26T07:34:08.674Z,17.10
2018-03-26T07:35:08.644Z,17.20
2018-03-26T07:36:08.614Z,18.00
2018-03-26T07:37:08.583Z,16.40
2018-03-26T07:38:08.553Z,18.10
2018-03-26T07:39:08.523Z,18.90
2018-03-26T07:40:08.493Z,16.30
2018-03-26T07:41:08.472Z,17.10
2018-03-26T07:42:08.436Z,15.30
2018-03-26T07:43:08.401Z,15.70
2018-03-26T07:44:08.371Z,15.60
2018-03-26T07:45:08.340Z,16.70
2018-03-26T07:46:08.310Z,13.00
2018-03-26T07:47:08.280Z,13.80
2018-03-26T07:48:08.250Z,13.90
2018-03-26T07:49:08.219Z,12.10
2018-03-26T07:50:08.196Z,12.80
2018-03-26T07:51:08.163Z,14.20
2018-03-26T07:52:08.382Z,13.50
2018-03-26T07:53:08.104Z,17.40
2018-03-26T07:54:08.069Z,10.60
2018-03-26T07:55:08.057Z,10.50
2018-03-26T07:56:08.033Z,12.20
2018-03-26T07:57:07.979Z,12.20
2018-03-26T07:58:07.949Z,11.90
2018-03-26T07:59:07.919Z,13.10
2018-03-26T08:00:07.900Z,12.90
2018-03-26T08:01:07.860Z,17.20
2018-03-26T08:02:07.829Z,12.00
2018-03-26T08:03:07.799Z,15.40
2018-03-26T08:04:07.769Z,20.70
2018-03-26T08:05:07.760Z,16.20
2018-03-26T08:06:07.727Z,17.90
2018-03-26T08:07:07.680Z,11.20
2018-03-26T08:08:07.649Z,12.60
2018-03-26T08:09:07.620Z,13.60
2018-03-26T08:10:07.589Z,15.60
2018-03-26T08:11:07.559Z,18.00
2018-03-26T08:12:07.530Z,12.10
2018-03-26T08:13:07.499Z,15.20
2018-03-26T08:14:07.469Z,13.50
2018-03-26T08:15:07.439Z,15.10
2018-03-26T08:16:07.436Z,11.50
2018-03-26T08:17:07.481Z,13.80
2018-03-26T08:18:07.351Z,13.60
2018-03-26T08:19:07.331Z,12.50
2018-03-26T08:20:07.292Z,22.70
2018-03-26T08:21:07.261Z,18.80
2018-03-26T08:22:07.244Z,26.50
2018-03-26T08:23:07.206Z,30.30
2018-03-26T08:24:07.173Z,21.90
2018-03-26T08:25:07.146Z,14.60
2018-03-26T08:26:07.121Z,18.70
2018-03-26T08:27:07.082Z,14.20
2018-03-26T08:28:07.058Z,18.70
2018-03-26T08:29:07.023Z,13.90
2018-03-26T08:30:06.995Z,12.40
2018-03-26T08:31:06.972Z,11.20
2018-03-26T08:32:06.934Z,9.50
2018-03-26T08:33:06.956Z,11.90
2018-03-26T08:34:06.876Z,16.00
2018-03-26T08:35:06.862Z,13.00
2018-03-26T08:36:06.820Z,12.20
2018-03-26T08:37:06.785Z,12.10
2018-03-26T08:38:06.761Z,9.40
2018-03-26T08:39:06.727Z,8.70
2018-03-26T08:40:06.699Z,10.20
2018-03-26T08:41:06.685Z,10.30
2018-03-26T08:42:06.638Z,10.80
2018-03-26T08:43:06.608Z,13.60
2018-03-26T08:44:06.579Z,13.10
2018-03-26T08:45:06.553Z,13.00
2018-03-26T08:46:06.520Z,12.20
2018-03-26T08:47:06.489Z,13.00
2018-03-26T08:48:06.459Z,13.30
2018-03-26T08:49:06.430Z,12.10
2018-03-26T08:50:06.515Z,12.90
2018-03-26T08:51:06.425Z,12.00
2018-03-26T08:52:06.341Z,12.80
2018-03-26T08:53:06.327Z,11.20
2018-03-26T08:54:06.281Z,12.50
2018-03-26T08:55:06.253Z,12.50
2018-03-26T08:56:06.222Z,11.90
2018-03-26T08:57:06.194Z,14.30
2018-03-26T08:58:06.163Z,14.40
2018-03-26T08:59:06.174Z,12.90
2018-03-26T09:00:06.104Z,12.70
2018-03-26T09:01:06.074Z,14.70
2018-03-26T09:02:06.053Z,14.10
2018-03-26T09:03:06.018Z,13.70
2018-03-26T09:04:05.986Z,26.90
2018-03-26T09:05:05.955Z,23.60
2018-03-26T09:06:05.925Z,14.30
2018-03-26T09:07:05.897Z,17.30
2018-03-26T09:08:05.869Z,17.40
2018-03-26T09:09:05.837Z,12.20
2018-03-26T09:10:05.814Z,10.80
2018-03-26T09:11:05.781Z,9.90
2018-03-26T09:12:05.766Z,11.00
2018-03-26T09:13:05.725Z,12.30
2018-03-26T09:14:05.690Z,11.70
2018-03-26T09:15:05.679Z,12.80
2018-03-26T09:16:05.641Z,10.20
2018-03-26T09:17:05.621Z,14.50
2018-03-26T09:18:05.581Z,17.50
2018-03-26T09:19:05.558Z,14.20
2018-03-26T09:20:05.515Z,13.70
2018-03-26T09:21:05.485Z,14.70
2018-03-26T09:22:05.456Z,17.80
2018-03-26T09:23:05.426Z,12.50
2018-03-26T09:24:05.397Z,14.70
2018-03-26T09:25:05.438Z,14.90
2018-03-26T09:26:05.352Z,19.40
2018-03-26T09:27:05.316Z,13.70
2018-03-26T09:28:05.336Z,15.80
2018-03-26T09:29:05.257Z,15.50
2018-03-26T09:30:05.220Z,12.60
2018-03-26T09:31:05.191Z,10.70
2018-03-26T09:32:05.162Z,13.70
2018-03-26T09:33:05.136Z,11.40
2018-03-26T09:34:05.103Z,12.60
2018-03-26T09:35:05.080Z,13.40
2018-03-26T09:36:05.044Z,11.00
2018-03-26T09:37:05.014Z,13.30
2018-03-26T09:38:04.993Z,12.10
2018-03-26T09:39:04.983Z,13.70
2018-03-26T09:40:04.943Z,13.50
2018-03-26T09:41:04.916Z,17.10
2018-03-26T09:42:04.895Z,12.90
2018-03-26T09:43:04.922Z,15.70
2018-03-26T09:44:04.837Z,9.70
2018-03-26T09:45:04.795Z,13.50
2018-03-26T09:46:04.749Z,12.00
2018-03-26T09:47:04.719Z,13.60
2018-03-26T09:48:04.718Z,9.60
2018-03-26T09:49:04.660Z,9.10
2018-03-26T09:50:04.643Z,9.10
2018-03-26T09:51:04.602Z,11.00
2018-03-26T09:52:04.581Z,9.20
2018-03-26T09:53:04.542Z,7.30
2018-03-26T09:54:04.513Z,11.40
2018-03-26T09:55:04.485Z,11.70
2018-03-26T09:56:04.457Z,8.40
2018-03-26T09:57:04.425Z,11.40
2018-03-26T09:58:04.395Z,11.10
2018-03-26T09:59:04.366Z,11.50
2018-03-26T10:00:04.350Z,11.50
2018-03-26T10:01:04.309Z,7.90
2018-03-26T10:02:04.285Z,23.70
2018-03-26T10:03:04.258Z,27.00
2018-03-26T10:04:04.223Z,15.30
2018-03-26T10:05:04.189Z,11.70
2018-03-26T10:06:04.172Z,14.30
2018-03-26T10:07:04.131Z,11.90
2018-03-26T10:08:04.102Z,16.70
2018-03-26T10:09:04.072Z,17.10
2018-03-26T10:10:04.042Z,18.40
2018-03-26T10:11:04.014Z,18.90
2018-03-26T10:12:03.984Z,13.90
2018-03-26T10:13:03.955Z,18.30
2018-03-26T10:14:03.926Z,22.70
2018-03-26T10:15:03.905Z,14.80
2018-03-26T10:16:03.872Z,14.10
2018-03-26T10:17:03.841Z,18.30
2018-03-26T10:18:03.809Z,17.60
2018-03-26T10:19:03.784Z,14.50
2018-03-26T10:20:03.754Z,15.40
2018-03-26T10:21:03.723Z,20.90
2018-03-26T10:22:03.694Z,16.40
2018-03-26T10:23:03.663Z,16.80
2018-03-26T10:24:03.641Z,15.70
2018-03-26T10:25:03.604Z,19.50
2018-03-26T10:26:03.579Z,18.50
2018-03-26T10:27:03.547Z,17.70
2018-03-26T10:28:03.522Z,16.80
2018-03-26T10:29:03.487Z,16.40
2018-03-26T10:30:03.462Z,16.90
2018-03-26T10:31:03.430Z,19.90
2018-03-26T10:32:03.402Z,18.80
2018-03-26T10:33:03.372Z,13.60
2018-03-26T10:34:03.342Z,15.30
2018-03-26T10:35:03.315Z,15.80
2018-03-26T10:36:03.289Z,13.60
2018-03-26T10:37:03.255Z,14.00
2018-03-26T10:38:03.228Z,12.10
2018-03-26T10:39:03.197Z,13.90
2018-03-26T10:40:03.171Z,14.10
2018-03-26T10:41:03.139Z,11.20
2018-03-26T10:42:03.109Z,12.00
2018-03-26T10:43:03.081Z,10.50
2018-03-26T10:44:03.054Z,14.70
2018-03-26T10:45:03.023Z,10.00
2018-03-26T10:46:03.013Z,10.50
2018-03-26T10:47:02.965Z,12.00
2018-03-26T10:48:02.943Z,11.00
2018-03-26T10:49:02.909Z,12.70
2018-03-26T10:50:02.883Z,10.70
2018-03-26T10:51:02.910Z,19.50
2018-03-26T10:52:02.830Z,18.10
2018-03-26T10:53:02.792Z,13.80
2018-03-26T10:54:02.766Z,12.90
2018-03-26T10:55:02.735Z,11.00
2018-03-26T10:56:02.710Z,11.30
2018-03-26T10:57:02.677Z,9.50
2018-03-26T10:58:02.657Z,11.00
2018-03-26T10:59:02.619Z,14.20
2018-03-26T11:00:02.591Z,10.80
2018-03-26T11:01:02.566Z,13.20
2018-03-26T11:02:02.533Z,10.70
2018-03-26T11:03:02.504Z,9.60
2018-03-26T11:04:02.476Z,11.10
2018-03-26T11:05:02.446Z,9.50
2018-03-26T11:06:02.419Z,9.30
2018-03-26T11:07:02.388Z,10.00
2018-03-26T11:08:02.360Z,7.40
2018-03-26T11:09:02.332Z,6.70
2018-03-26T11:10:02.309Z,8.80
2018-03-26T11:11:02.295Z,9.40
2018-03-26T11:12:02.254Z,9.30
2018-03-26T11:13:02.215Z,10.90
2018-03-26T11:14:02.198Z,9.30
2018-03-26T11:15:02.167Z,10.40
2018-03-26T11:16:02.132Z,10.10
2018-03-26T11:17:02.101Z,9.40
2018-03-26T11:18:02.072Z,10.30
2018-03-26T11:19:02.045Z,10.60
2018-03-26T11:20:02.015Z,7.90
2018-03-26T11:21:01.985Z,9.40
2018-03-26T11:22:01.957Z,12.00
2018-03-26T11:23:01.930Z,13.20
2018-03-26T11:24:01.900Z,11.10
2018-03-26T11:25:01.874Z,12.90
2018-03-26T11:26:01.844Z,14.00
2018-03-26T11:27:01.814Z,10.00
2018-03-26T11:28:01.839Z,10.40
2018-03-26T11:29:01.756Z,11.00
2018-03-26T11:30:01.728Z,11.10
2018-03-26T11:31:01.701Z,9.10
2018-03-26T11:32:01.671Z,11.40
2018-03-26T11:33:01.641Z,12.00
2018-03-26T11:34:01.617Z,12.40
2018-03-26T11:35:01.585Z,10.50
2018-03-26T11:36:01.567Z,12.80
2018-03-26T11:37:01.526Z,14.60
2018-03-26T11:38:01.497Z,11.70
2018-03-26T11:39:01.470Z,11.30
2018-03-26T11:40:01.441Z,12.70
2018-03-26T11:41:01.412Z,12.50
2018-03-26T11:42:01.383Z,15.60
2018-03-26T11:43:01.364Z,13.60
2018-03-26T11:44:01.328Z,12.30
2018-03-26T11:45:01.505Z,14.10
2018-03-26T11:46:01.312Z,12.00
2018-03-26T11:47:01.252Z,13.80
2018-03-26T11:48:01.214Z,13.10
2018-03-26T11:49:01.226Z,12.20
2018-03-26T11:50:01.158Z,14.20
2018-03-26T11:51:01.172Z,11.60
2018-03-26T11:52:01.129Z,12.70
2018-03-26T11:53:01.074Z,13.20
2018-03-26T11:54:01.069Z,15.00
2018-03-26T11:55:01.020Z,17.00
2018-03-26T11:56:01.002Z,14.90
2018-03-26T11:57:00.968Z,12.20
2018-03-26T11:58:00.967Z,15.90
2018-03-26T11:59:00.928Z,13.70
2018-03-26T12:00:00.915Z,14.70
2018-03-26T12:01:00.865Z,12.60
2018-03-26T12:02:00.832Z,14.90
2018-03-26T12:03:00.807Z,14.00
2018-03-26T12:04:00.774Z,16.00
2018-03-26T12:05:00.746Z,14.00
2018-03-26T12:06:00.754Z,14.50
2018-03-26T12:07:00.694Z,11.30
2018-03-26T12:08:00.697Z,14.90
2018-03-26T12:09:00.653Z,15.00
2018-03-26T12:10:00.613Z,12.30
2018-03-26T12:11:00.584Z,13.70
2018-03-26T12:12:00.556Z,19.50
2018-03-26T12:13:00.541Z,16.90
2018-03-26T12:14:00.505Z,16.90
2018-03-26T12:15:00.487Z,13.80
2018-03-26T12:16:00.491Z,13.80
2018-03-26T12:17:00.425Z,13.90
2018-03-26T12:18:00.430Z,12.30
2018-03-26T12:19:00.369Z,13.20
2018-03-26T12:20:00.345Z,15.30
2018-03-26T12:21:00.311Z,12.20
2018-03-26T12:22:00.284Z,13.50
2018-03-26T12:23:00.260Z,13.20
2018-03-26T12:24:00.231Z,10.60
2018-03-26T12:25:00.206Z,8.90
2018-03-26T12:26:00.185Z,9.20
2018-03-26T12:27:00.150Z,12.00
2018-03-26T12:28:00.121Z,10.30
2018-03-26T12:29:00.098Z,11.70
2018-03-26T12:30:00.066Z,14.00
2018-03-26T12:31:00.040Z,11.20
2018-03-26T12:32:00.015Z,15.40
2018-03-26T12:32:59.989Z,12.60
2018-03-26T12:33:59.958Z,17.40
2018-03-26T12:34:59.935Z,19.80
2018-03-26T12:35:59.959Z,15.70
2018-03-26T12:36:59.878Z,10.60
2018-03-26T12:37:59.850Z,17.40
2018-03-26T12:38:59.828Z,14.30
2018-03-26T12:39:59.815Z,19.50
2018-03-26T12:40:59.769Z,12.00
2018-03-26T12:41:59.743Z,16.30
2018-03-26T12:42:59.716Z,15.30
2018-03-26T12:43:59.700Z,11.50
2018-03-26T12:44:59.665Z,10.40
2018-03-26T12:45:59.637Z,15.10